createdAt,value
2022-08-07T00:00:05.531Z,70.70
2022-08-07T00:01:12.501Z,70.70
2022-08-07T00:02:37.082Z,71.01
2022-08-07T00:03:18.247Z,71.31
2022-08-07T00:04:24.510Z,71.39
2022-08-07T00:05:25.907Z,71.49
2022-08-07T00:06:29.613Z,71.40
2022-08-07T00:07:40.083Z,71.04
2022-08-07T00:08:37.173Z,71.22
2022-08-07T00:09:50.201Z,70.84
2022-08-07T00:10:47.617Z,71.11
2022-08-07T00:11:55.684Z,71.11
2022-08-07T00:13:00.224Z,71.14
2022-08-07T00:13:59.852Z,71.14
2022-08-07T00:15:01.973Z,71.17
2022-08-07T00:16:06.455Z,71.26
2022-08-07T00:17:10.937Z,71.37
2022-08-07T00:18:19.837Z,71.61
2022-08-07T00:19:21.795Z,71.61
2022-08-07T00:20:29.781Z,71.63
2022-08-07T00:21:56.858Z,71.54
2022-08-07T00:22:35.776Z,71.55
2022-08-07T00:23:47.578Z,71.74
2022-08-07T00:24:50.474Z,71.68
2022-08-07T00:26:01.599Z,71.57
2022-08-07T00:27:06.199Z,71.72
2022-08-07T00:28:02.418Z,71.59
2022-08-07T00:29:04.910Z,71.73
2022-08-07T00:30:21.718Z,71.94
2022-08-07T00:31:16.453Z,71.55
2022-08-07T00:32:18.379Z,71.60
2022-08-07T00:33:22.409Z,71.68
2022-08-07T00:34:28.562Z,71.66
2022-08-07T00:35:31.433Z,71.58
2022-08-07T00:36:36.162Z,71.13
2022-08-07T00:37:47.706Z,71.04
2022-08-07T00:38:44.426Z,70.97
2022-08-07T00:39:54.614Z,70.95
2022-08-07T00:40:50.622Z,71.15
2022-08-07T00:42:01.665Z,71.10
2022-08-07T00:43:01.395Z,71.05
2022-08-07T00:44:03.467Z,71.22
2022-08-07T00:45:07.408Z,71.44
2022-08-07T00:46:12.356Z,71.31
2022-08-07T00:48:08.302Z,71.21
2022-08-07T00:48:30.824Z,71.29
2022-08-07T00:50:16.746Z,71.37
2022-08-07T00:50:46.182Z,71.20
2022-08-07T00:51:58.190Z,71.37
2022-08-07T00:52:36.750Z,71.51
2022-08-07T00:53:50.725Z,71.44
2022-08-07T00:54:42.713Z,71.50
2022-08-07T00:56:03.107Z,71.41
2022-08-07T00:56:50.166Z,71.88
2022-08-07T00:57:55.805Z,72.15
2022-08-07T00:58:58.445Z,72.37
2022-08-07T01:00:02.940Z,72.55
2022-08-07T01:01:05.197Z,72.73
2022-08-07T01:02:14.178Z,72.58
2022-08-07T01:03:13.602Z,72.63
2022-08-07T01:04:21.781Z,72.45
2022-08-07T01:05:24.602Z,72.61
2022-08-07T01:06:28.523Z,72.65
2022-08-07T01:07:31.564Z,72.68
2022-08-07T01:08:34.222Z,72.65
2022-08-07T01:10:04.687Z,72.63
2022-08-07T01:10:40.721Z,72.62
2022-08-07T01:12:27.473Z,72.42
2022-08-07T01:12:53.997Z,72.36
2022-08-07T01:13:55.519Z,72.30
2022-08-07T01:15:01.762Z,72.56
2022-08-07T01:16:06.680Z,72.48
2022-08-07T01:17:10.124Z,72.69
2022-08-07T01:18:16.901Z,72.77
2022-08-07T01:19:19.846Z,72.65
2022-08-07T01:20:30.800Z,72.58
2022-08-07T01:21:32.155Z,72.70
2022-08-07T01:22:37.881Z,72.68
2022-08-07T01:23:46.658Z,72.67
2022-08-07T01:24:49.893Z,72.38
2022-08-07T01:25:55.671Z,72.50
2022-08-07T01:26:59.289Z,72.52
2022-08-07T01:28:02.922Z,72.49
2022-08-07T01:29:06.002Z,72.35
2022-08-07T01:30:11.332Z,72.48
2022-08-07T01:31:15.467Z,72.48
2022-08-07T01:32:19.737Z,72.63
2022-08-07T01:33:24.350Z,72.71
2022-08-07T01:34:31.378Z,72.94
2022-08-07T01:35:36.882Z,72.92
2022-08-07T01:36:40.841Z,72.83
2022-08-07T01:37:45.935Z,72.82
2022-08-07T01:38:48.538Z,72.94
2022-08-07T01:39:56.176Z,73.13
2022-08-07T01:41:05.509Z,73.08
2022-08-07T01:42:38.393Z,73.13
2022-08-07T01:43:13.874Z,73.07
2022-08-07T01:44:17.846Z,73.02
2022-08-07T01:45:33.140Z,72.78
2022-08-07T01:46:29.258Z,72.95
2022-08-07T01:48:19.533Z,72.94
2022-08-07T01:48:41.032Z,73.12
2022-08-07T01:49:43.921Z,73.23
2022-08-07T01:50:55.701Z,73.08
2022-08-07T01:52:04.895Z,73.10
2022-08-07T01:53:08.913Z,72.98
2022-08-07T01:54:33.340Z,73.00
2022-08-07T01:55:24.099Z,72.90
2022-08-07T01:56:30.964Z,72.94
2022-08-07T01:58:05.531Z,72.87
2022-08-07T01:58:48.309Z,72.77
2022-08-07T02:00:03.750Z,72.54
2022-08-07T02:01:58.862Z,72.56
2022-08-07T02:02:32.752Z,72.58
2022-08-07T02:03:42.794Z,72.78
2022-08-07T02:04:52.676Z,72.67
2022-08-07T02:05:59.642Z,72.78
2022-08-07T02:07:00.728Z,72.79
2022-08-07T02:08:07.323Z,72.76
2022-08-07T02:09:52.461Z,72.88
2022-08-07T02:10:26.045Z,72.92
2022-08-07T02:12:02.876Z,72.92
2022-08-07T02:12:40.343Z,73.08
2022-08-07T02:13:57.801Z,73.10
2022-08-07T02:14:55.251Z,72.96
2022-08-07T02:16:11.815Z,73.18
2022-08-07T02:17:24.725Z,73.35
2022-08-07T02:18:22.400Z,73.40
2022-08-07T02:20:07.016Z,73.45
2022-08-07T02:20:32.966Z,73.34
2022-08-07T02:21:55.452Z,73.33
2022-08-07T02:22:43.992Z,73.42
2022-08-07T02:23:49.201Z,73.39
2022-08-07T02:24:55.296Z,73.42
2022-08-07T02:26:30.605Z,73.42
2022-08-07T02:27:04.553Z,73.46
2022-08-07T02:28:07.944Z,73.58
2022-08-07T02:29:13.816Z,73.54
2022-08-07T02:30:19.328Z,73.59
2022-08-07T02:31:28.637Z,73.31
2022-08-07T02:32:30.209Z,73.31
2022-08-07T02:33:57.246Z,73.59
2022-08-07T02:34:48.927Z,73.62
2022-08-07T02:36:30.727Z,73.39
2022-08-07T02:36:53.025Z,73.45
2022-08-07T02:37:57.457Z,73.42
2022-08-07T02:39:16.230Z,73.14
2022-08-07T02:40:30.009Z,73.46
2022-08-07T02:41:14.249Z,73.52
2022-08-07T02:42:20.565Z,73.58
2022-08-07T02:43:27.604Z,72.90
2022-08-07T02:44:34.306Z,72.90
2022-08-07T02:45:58.462Z,73.32
2022-08-07T02:46:46.571Z,73.26
2022-08-07T02:47:49.403Z,73.20
2022-08-07T02:48:55.113Z,73.30
2022-08-07T02:49:59.669Z,73.30
2022-08-07T02:51:03.637Z,73.18
2022-08-07T02:52:10.057Z,73.11
2022-08-07T02:53:18.762Z,73.26
2022-08-07T02:54:25.273Z,73.16
2022-08-07T02:56:04.105Z,73.21
2022-08-07T02:56:38.989Z,73.27
2022-08-07T02:57:44.487Z,73.24
2022-08-07T02:58:54.219Z,73.32
2022-08-07T03:00:01.272Z,73.34
2022-08-07T03:01:16.038Z,73.29
2022-08-07T03:02:14.001Z,73.31
2022-08-07T03:03:22.644Z,73.19
2022-08-07T03:04:23.548Z,73.17
2022-08-07T03:05:35.743Z,73.18
2022-08-07T03:06:34.590Z,73.18
2022-08-07T03:08:04.946Z,73.19
2022-08-07T03:08:45.171Z,73.24
2022-08-07T03:09:51.972Z,73.20
2022-08-07T03:10:52.873Z,73.16
2022-08-07T03:12:02.737Z,73.06
2022-08-07T03:13:06.266Z,72.88
2022-08-07T03:14:11.785Z,72.97
2022-08-07T03:15:14.044Z,73.21
2022-08-07T03:16:22.992Z,73.34
2022-08-07T03:17:25.121Z,73.25
2022-08-07T03:18:34.652Z,73.20
2022-08-07T03:19:36.969Z,73.35
2022-08-07T03:20:41.354Z,73.43
2022-08-07T03:21:50.509Z,73.34
2022-08-07T03:22:50.536Z,73.31
2022-08-07T03:24:19.444Z,73.33
2022-08-07T03:25:03.219Z,73.46
2022-08-07T03:26:21.045Z,73.65
2022-08-07T03:27:30.695Z,73.77
2022-08-07T03:28:38.147Z,73.67
2022-08-07T03:29:33.686Z,73.87
2022-08-07T03:30:38.252Z,74.07
2022-08-07T03:31:46.485Z,74.09
2022-08-07T03:32:57.136Z,74.17
2022-08-07T03:33:59.680Z,74.12
2022-08-07T03:35:17.674Z,74.01
2022-08-07T03:36:13.250Z,73.87
2022-08-07T03:37:20.677Z,74.08
2022-08-07T03:38:29.615Z,74.16
2022-08-07T03:39:59.491Z,74.23
2022-08-07T03:40:36.910Z,74.43
2022-08-07T03:41:47.481Z,74.29
2022-08-07T03:42:46.033Z,74.13
2022-08-07T03:43:57.411Z,73.97
2022-08-07T03:44:58.028Z,73.98
2022-08-07T03:46:18.110Z,73.76
2022-08-07T03:47:13.989Z,73.65
2022-08-07T03:48:15.446Z,73.40
2022-08-07T03:49:17.944Z,73.37
2022-08-07T03:50:23.087Z,73.19
2022-08-07T03:51:30.681Z,73.09
2022-08-07T03:52:32.474Z,72.91
2022-08-07T03:54:33.448Z,72.74
2022-08-07T03:54:54.314Z,72.61
2022-08-07T03:55:58.365Z,72.58
2022-08-07T03:57:03.309Z,72.62
2022-08-07T03:58:32.542Z,72.66
2022-08-07T03:59:13.437Z,72.68
2022-08-07T04:00:17.359Z,72.64
2022-08-07T04:01:24.776Z,72.57
2022-08-07T04:02:28.161Z,72.53
2022-08-07T04:03:49.885Z,72.52
2022-08-07T04:04:37.252Z,72.57
2022-08-07T04:05:42.298Z,72.47
2022-08-07T04:06:50.795Z,72.52
2022-08-07T04:07:56.019Z,72.35
2022-08-07T04:09:01.932Z,72.13
2022-08-07T04:10:06.048Z,72.03
2022-08-07T04:12:15.690Z,71.83
2022-08-07T04:12:27.199Z,71.73
2022-08-07T04:13:27.635Z,71.65
2022-08-07T04:14:37.299Z,71.56
2022-08-07T04:15:34.162Z,71.40
2022-08-07T04:16:40.344Z,71.38
2022-08-07T04:18:56.602Z,71.33
2022-08-07T04:18:58.977Z,71.33
2022-08-07T04:19:54.673Z,71.22
2022-08-07T04:21:00.307Z,71.13
2022-08-07T04:22:07.792Z,71.02
2022-08-07T04:23:09.849Z,70.84
2022-08-07T04:24:33.570Z,70.54
2022-08-07T04:25:29.181Z,70.80
2022-08-07T04:26:29.738Z,71.02
2022-08-07T04:27:39.239Z,71.09
2022-08-07T04:28:42.265Z,70.94
2022-08-07T04:30:01.718Z,70.85
2022-08-07T04:30:55.635Z,70.80
2022-08-07T04:32:03.405Z,71.39
2022-08-07T04:33:09.819Z,71.52
2022-08-07T04:34:17.275Z,71.47
2022-08-07T04:35:21.502Z,71.64
2022-08-07T04:36:26.277Z,71.51
2022-08-07T04:37:31.394Z,71.64
2022-08-07T04:38:36.542Z,71.50
2022-08-07T04:39:40.589Z,71.38
2022-08-07T04:40:52.555Z,71.29
2022-08-07T04:41:51.066Z,71.29
2022-08-07T04:42:54.927Z,71.21
2022-08-07T04:44:12.241Z,71.30
2022-08-07T04:45:08.510Z,71.25
2022-08-07T04:46:20.235Z,71.33
2022-08-07T04:47:58.856Z,71.16
2022-08-07T04:48:53.750Z,71.19
2022-08-07T04:50:07.523Z,71.34
2022-08-07T04:51:19.724Z,71.25
2022-08-07T04:52:36.719Z,72.57
2022-08-07T04:54:01.330Z,72.43
2022-08-07T04:54:59.107Z,72.28
2022-08-07T04:58:10.084Z,73.13
2022-08-07T04:58:14.999Z,72.49
2022-08-07T04:59:17.004Z,73.18
2022-08-07T05:00:09.696Z,72.97
2022-08-07T05:01:17.310Z,72.70
2022-08-07T05:02:42.772Z,72.48
2022-08-07T05:04:08.352Z,72.47
2022-08-07T05:05:52.950Z,72.52
2022-08-07T05:06:43.497Z,72.43
2022-08-07T05:07:55.431Z,72.39
2022-08-07T05:09:04.944Z,72.34
2022-08-07T05:10:26.400Z,71.82
2022-08-07T05:11:56.892Z,71.47
2022-08-07T05:12:46.249Z,70.96
2022-08-07T05:14:55.367Z,71.06
2022-08-07T05:15:14.454Z,70.89
2022-08-07T05:16:22.202Z,70.24
2022-08-07T05:17:52.391Z,69.59
2022-08-07T05:18:37.495Z,69.68
2022-08-07T05:19:46.666Z,69.61
2022-08-07T05:20:53.549Z,69.64
2022-08-07T05:22:01.823Z,69.46
2022-08-07T05:23:15.763Z,69.40
2022-08-07T05:24:15.385Z,69.44
2022-08-07T05:25:37.376Z,69.75
2022-08-07T05:26:27.069Z,69.88
2022-08-07T05:28:02.672Z,70.00
2022-08-07T05:28:40.585Z,69.91
2022-08-07T05:29:51.142Z,69.83
2022-08-07T05:30:53.817Z,70.04
2022-08-07T05:31:56.951Z,69.95
2022-08-07T05:33:03.479Z,70.00
2022-08-07T05:34:12.456Z,70.74
2022-08-07T05:35:23.500Z,70.64
2022-08-07T05:36:30.613Z,70.64
2022-08-07T05:37:31.136Z,70.53
2022-08-07T05:39:00.606Z,70.57
2022-08-07T05:40:05.414Z,70.51
2022-08-07T05:40:51.503Z,70.21
2022-08-07T05:42:02.882Z,69.90
2022-08-07T05:43:01.834Z,69.81
2022-08-07T05:44:12.769Z,69.37
2022-08-07T05:45:26.148Z,68.97
2022-08-07T05:46:20.180Z,68.93
2022-08-07T05:48:00.075Z,68.96
2022-08-07T05:48:30.086Z,68.98
2022-08-07T05:49:41.101Z,68.89
2022-08-07T05:50:42.842Z,68.81
2022-08-07T05:51:47.125Z,69.07
2022-08-07T05:52:51.518Z,69.30
2022-08-07T05:54:13.487Z,69.17
2022-08-07T05:54:58.615Z,69.26
2022-08-07T05:56:06.113Z,68.86
2022-08-07T05:57:08.543Z,68.88
2022-08-07T05:58:12.684Z,69.77
2022-08-07T05:59:19.325Z,69.65
2022-08-07T06:00:26.183Z,69.26
2022-08-07T06:01:35.932Z,69.12
2022-08-07T06:02:39.487Z,68.82
2022-08-07T06:03:56.754Z,68.75
2022-08-07T06:04:57.643Z,68.96
2022-08-07T06:06:01.064Z,69.09
2022-08-07T06:07:05.843Z,68.94
2022-08-07T06:08:29.341Z,69.06
2022-08-07T06:09:17.127Z,69.21
2022-08-07T06:10:22.143Z,69.22
2022-08-07T06:11:25.850Z,69.29
2022-08-07T06:12:33.192Z,69.60
2022-08-07T06:14:12.014Z,69.55
2022-08-07T06:14:37.322Z,69.60
2022-08-07T06:15:42.484Z,70.05
2022-08-07T06:16:50.216Z,69.99
2022-08-07T06:17:55.360Z,69.83
2022-08-07T06:19:01.322Z,69.13
2022-08-07T06:20:05.703Z,69.23
2022-08-07T06:22:16.971Z,68.90
2022-08-07T06:22:24.075Z,69.35
2022-08-07T06:23:46.506Z,69.43
2022-08-07T06:24:46.346Z,68.66
2022-08-07T06:25:34.718Z,68.47
2022-08-07T06:26:34.743Z,68.71
2022-08-07T06:28:00.434Z,68.37
2022-08-07T06:28:57.385Z,68.59
2022-08-07T06:30:03.926Z,69.22
2022-08-07T06:31:06.651Z,68.25
2022-08-07T06:32:08.504Z,67.28
2022-08-07T06:33:16.059Z,67.19
2022-08-07T06:34:25.573Z,66.97
2022-08-07T06:35:38.996Z,67.25
2022-08-07T06:36:35.780Z,67.16
2022-08-07T06:37:43.495Z,66.89
2022-08-07T06:38:58.395Z,66.85
2022-08-07T06:40:17.019Z,66.90
2022-08-07T06:40:55.913Z,66.64
2022-08-07T06:42:18.478Z,66.44
2022-08-07T06:43:25.665Z,66.39
2022-08-07T06:44:51.103Z,66.70
2022-08-07T06:45:50.652Z,65.95
2022-08-07T06:47:12.311Z,66.01
2022-08-07T06:47:59.927Z,65.81
2022-08-07T06:49:07.731Z,65.91
2022-08-07T06:50:14.288Z,65.65
2022-08-07T06:51:31.098Z,65.78
2022-08-07T06:52:31.383Z,65.78
2022-08-07T06:55:29.987Z,65.97
2022-08-07T06:55:33.377Z,64.87
2022-08-07T06:55:53.677Z,64.80
2022-08-07T06:56:52.200Z,64.41
2022-08-07T06:58:06.538Z,65.02
2022-08-07T07:00:14.350Z,65.09
2022-08-07T07:00:38.201Z,65.27
2022-08-07T07:01:48.729Z,64.80
2022-08-07T07:02:54.222Z,64.66
2022-08-07T07:03:57.208Z,64.75
2022-08-07T07:04:58.866Z,65.07
2022-08-07T07:06:06.274Z,64.55
2022-08-07T07:07:10.794Z,64.19
2022-08-07T07:08:18.220Z,63.98
2022-08-07T07:09:26.037Z,64.26
2022-08-07T07:10:32.635Z,64.19
2022-08-07T07:12:07.968Z,64.21
2022-08-07T07:12:53.366Z,64.27
2022-08-07T07:14:01.457Z,64.42
2022-08-07T07:15:26.021Z,64.81
2022-08-07T07:16:30.547Z,64.49
2022-08-07T07:17:45.165Z,64.42
2022-08-07T07:18:50.794Z,64.33
2022-08-07T07:19:59.128Z,64.16
2022-08-07T07:21:13.614Z,64.04
2022-08-07T07:22:37.024Z,63.66
2022-08-07T07:24:06.491Z,63.46
2022-08-07T07:24:21.547Z,63.53
2022-08-07T07:26:34.133Z,63.79
2022-08-07T07:26:36.831Z,63.33
2022-08-07T07:28:02.156Z,63.92
2022-08-07T07:29:28.586Z,63.68
2022-08-07T07:30:09.294Z,63.71
2022-08-07T07:31:21.630Z,63.74
2022-08-07T07:32:24.210Z,63.73
2022-08-07T07:33:29.882Z,63.80
2022-08-07T07:34:37.751Z,63.51
2022-08-07T07:36:04.819Z,63.00
2022-08-07T07:36:52.659Z,63.54
2022-08-07T07:38:02.568Z,63.31
2022-08-07T07:39:03.639Z,63.01
2022-08-07T07:40:10.200Z,62.81
2022-08-07T07:41:16.443Z,62.85
2022-08-07T07:42:21.882Z,63.02
2022-08-07T07:43:47.820Z,62.66
2022-08-07T07:44:35.286Z,62.75
2022-08-07T07:46:37.326Z,62.89
2022-08-07T07:46:57.249Z,62.28
2022-08-07T07:47:52.835Z,63.10
2022-08-07T07:49:00.297Z,62.62
2022-08-07T07:50:35.100Z,62.20
2022-08-07T07:51:08.771Z,62.31
2022-08-07T07:52:12.582Z,61.83
2022-08-07T07:53:23.221Z,61.51
2022-08-07T07:54:24.328Z,61.60
2022-08-07T07:55:37.077Z,60.81
2022-08-07T07:56:35.985Z,61.00
2022-08-07T07:57:44.048Z,61.08
2022-08-07T07:58:46.988Z,60.89
2022-08-07T07:59:53.847Z,60.85
2022-08-07T08:00:58.730Z,60.90
2022-08-07T08:02:10.242Z,61.02
2022-08-07T08:03:16.616Z,60.86
2022-08-07T08:04:20.202Z,60.56
2022-08-07T08:05:24.918Z,60.07
2022-08-07T08:06:31.027Z,59.54
2022-08-07T08:07:42.436Z,58.65
2022-08-07T08:08:42.747Z,58.03
2022-08-07T08:09:52.343Z,58.35
2022-08-07T08:10:52.269Z,58.16
2022-08-07T08:12:02.837Z,58.46
2022-08-07T08:13:02.955Z,57.67
2022-08-07T08:14:06.909Z,57.65
2022-08-07T08:15:15.224Z,57.36
2022-08-07T08:16:25.076Z,56.53
2022-08-07T08:17:57.160Z,56.44
2022-08-07T08:18:33.861Z,56.61
2022-08-07T08:20:18.223Z,56.16
2022-08-07T08:20:47.941Z,56.38
2022-08-07T08:22:02.719Z,55.59
2022-08-07T08:23:00.210Z,55.09
2022-08-07T08:24:06.451Z,54.50
2022-08-07T08:25:26.303Z,54.05
2022-08-07T08:26:20.460Z,54.49
2022-08-07T08:27:26.431Z,54.98
2022-08-07T08:28:38.242Z,54.52
2022-08-07T08:29:55.933Z,53.66
2022-08-07T08:30:55.976Z,53.54
2022-08-07T08:32:17.008Z,53.12
2022-08-07T08:33:15.237Z,52.24
2022-08-07T08:34:27.050Z,52.40
2022-08-07T08:35:28.829Z,52.36
2022-08-07T08:36:34.814Z,52.00
2022-08-07T08:37:59.680Z,52.41
2022-08-07T08:38:46.536Z,51.71
2022-08-07T08:39:54.994Z,51.16
2022-08-07T08:40:59.243Z,51.34
2022-08-07T08:42:19.038Z,49.92
2022-08-07T08:43:56.205Z,49.37
2022-08-07T08:45:41.880Z,49.36
2022-08-07T08:47:10.062Z,49.67
2022-08-07T08:48:35.966Z,49.22
2022-08-07T08:50:05.973Z,49.54
2022-08-07T08:51:29.611Z,48.96
2022-08-07T08:52:36.001Z,47.39
2022-08-07T08:54:00.006Z,48.34
2022-08-07T08:55:21.029Z,48.05
2022-08-07T08:56:29.443Z,47.64
2022-08-07T08:57:50.947Z,47.65
2022-08-07T08:59:12.764Z,48.62
2022-08-07T09:00:12.946Z,49.12
2022-08-07T09:01:43.692Z,48.22
2022-08-07T09:03:07.540Z,48.37
2022-08-07T09:04:26.093Z,47.89
2022-08-07T09:05:42.277Z,47.43
2022-08-07T09:07:00.693Z,48.16
2022-08-07T09:08:06.380Z,47.92
2022-08-07T09:09:23.579Z,47.90
2022-08-07T09:10:35.302Z,48.05
2022-08-07T09:11:53.291Z,48.36
2022-08-07T09:13:14.686Z,47.65
2022-08-07T09:14:33.245Z,47.37
2022-08-07T09:16:20.174Z,47.49
2022-08-07T09:17:14.991Z,46.75
2022-08-07T09:18:47.356Z,46.86
2022-08-07T09:20:30.712Z,48.00
2022-08-07T09:22:22.389Z,48.69
2022-08-07T09:24:32.441Z,47.55
2022-08-07T09:24:33.139Z,49.27
2022-08-07T09:25:27.031Z,48.93
2022-08-07T09:26:57.052Z,51.16
2022-08-07T09:30:03.321Z,62.69
2022-08-07T09:30:04.786Z,53.98
2022-08-07T09:30:46.738Z,77.86
2022-08-07T09:32:17.150Z,89.91
2022-08-07T09:33:52.814Z,98.16
2022-08-07T09:34:58.971Z,100.00
2022-08-07T09:36:12.767Z,100.00
2022-08-07T09:37:48.288Z,100.00
2022-08-07T09:38:50.177Z,100.00
2022-08-07T09:40:03.432Z,100.00
2022-08-07T09:42:50.428Z,100.00
2022-08-07T09:44:06.914Z,100.00
2022-08-07T09:47:26.254Z,100.00
2022-08-07T09:47:55.666Z,100.00
2022-08-07T09:48:14.597Z,100.00
2022-08-07T09:50:01.045Z,100.00
2022-08-07T09:52:53.844Z,100.00
2022-08-07T09:54:02.664Z,100.00
2022-08-07T09:55:10.472Z,100.00
2022-08-07T09:56:47.893Z,100.00
2022-08-07T09:58:17.957Z,100.00
2022-08-07T10:00:01.212Z,100.00
2022-08-07T10:01:51.843Z,100.00
2022-08-07T10:02:56.411Z,100.00
2022-08-07T10:04:28.162Z,100.00
2022-08-07T10:05:59.860Z,100.00
2022-08-07T10:07:06.550Z,100.00
2022-08-07T10:08:51.246Z,100.00
2022-08-07T10:10:21.927Z,100.00
2022-08-07T10:12:02.144Z,100.00
2022-08-07T10:12:55.586Z,100.00
2022-08-07T10:14:23.018Z,100.00
2022-08-07T10:15:44.204Z,100.00
2022-08-07T10:17:10.583Z,100.00
2022-08-07T10:18:20.762Z,100.00
2022-08-07T10:19:57.360Z,99.41
2022-08-07T10:22:15.036Z,93.43
2022-08-07T10:23:13.011Z,99.58
2022-08-07T10:24:39.687Z,94.71
2022-08-07T10:25:53.077Z,94.50
2022-08-07T10:27:20.242Z,95.36
2022-08-07T10:28:37.115Z,99.21
2022-08-07T10:30:06.842Z,98.20
2022-08-07T10:31:38.521Z,94.31
2022-08-07T10:32:59.966Z,89.25
2022-08-07T10:34:17.950Z,90.25
2022-08-07T10:35:55.567Z,93.07
2022-08-07T10:36:37.674Z,96.81
2022-08-07T10:38:21.224Z,99.01
2022-08-07T10:39:41.344Z,100.00
2022-08-07T10:40:35.921Z,100.00
2022-08-07T10:41:51.941Z,100.00
2022-08-07T10:42:54.404Z,100.00
2022-08-07T10:44:09.061Z,100.00
2022-08-07T10:45:57.697Z,100.00
2022-08-07T10:46:33.230Z,100.00
2022-08-07T10:48:03.076Z,94.11
2022-08-07T10:49:24.528Z,98.11
2022-08-07T10:50:39.002Z,98.48
2022-08-07T10:52:01.672Z,97.19
2022-08-07T10:53:07.927Z,93.25
2022-08-07T10:54:18.867Z,94.92
2022-08-07T10:55:38.158Z,92.70
2022-08-07T10:56:56.045Z,87.01
2022-08-07T10:58:36.661Z,85.79
2022-08-07T10:59:47.895Z,90.13
2022-08-07T11:00:56.102Z,83.95
2022-08-07T11:02:12.562Z,80.95
2022-08-07T11:03:37.607Z,79.57
2022-08-07T11:04:54.050Z,78.73
2022-08-07T11:06:18.269Z,79.07
2022-08-07T11:07:59.182Z,78.58
2022-08-07T11:09:11.345Z,81.39
2022-08-07T11:10:14.671Z,85.28
2022-08-07T11:11:37.684Z,80.08
2022-08-07T11:12:49.721Z,86.13
2022-08-07T11:14:44.469Z,87.23
2022-08-07T11:15:09.614Z,90.20
2022-08-07T11:16:25.628Z,89.67
2022-08-07T11:17:45.090Z,89.43
2022-08-07T11:18:51.088Z,91.68
2022-08-07T11:19:57.953Z,90.16
2022-08-07T11:21:09.500Z,86.22
2022-08-07T11:22:32.522Z,83.39
2022-08-07T11:23:56.206Z,83.56
2022-08-07T11:25:06.729Z,80.10
2022-08-07T11:26:15.964Z,79.35
2022-08-07T11:28:01.390Z,78.88
2022-08-07T11:28:55.662Z,78.64
2022-08-07T11:30:17.890Z,83.68
2022-08-07T11:31:26.765Z,80.64
2022-08-07T11:32:57.220Z,79.13
2022-08-07T11:34:05.782Z,84.22
2022-08-07T11:35:16.631Z,81.61
2022-08-07T11:36:35.991Z,83.86
2022-08-07T11:38:12.741Z,84.59
2022-08-07T11:39:09.970Z,82.83
2022-08-07T11:40:53.262Z,82.92
2022-08-07T11:42:02.780Z,79.79
2022-08-07T11:43:41.274Z,77.35
2022-08-07T11:44:51.982Z,76.91
2022-08-07T11:46:07.325Z,77.51
2022-08-07T11:47:56.132Z,76.22
2022-08-07T11:49:50.346Z,84.62
2022-08-07T11:50:36.841Z,82.81
2022-08-07T11:52:10.485Z,81.04
2022-08-07T11:53:43.304Z,77.27
2022-08-07T11:55:18.584Z,79.50
2022-08-07T11:56:26.769Z,80.29
2022-08-07T11:58:00.820Z,77.35
2022-08-07T11:59:00.365Z,75.68
2022-08-07T12:00:19.788Z,80.08
2022-08-07T12:02:00.576Z,79.06
2022-08-07T12:03:05.882Z,75.01
2022-08-07T12:04:28.248Z,75.11
2022-08-07T12:07:26.914Z,73.88
2022-08-07T12:08:38.708Z,74.66
2022-08-07T12:09:49.574Z,78.56
2022-08-07T12:11:20.094Z,81.69
2022-08-07T12:12:11.573Z,80.19
2022-08-07T12:13:37.065Z,86.14
2022-08-07T12:14:34.094Z,84.06
2022-08-07T12:16:07.034Z,82.79
2022-08-07T12:16:55.335Z,82.09
2022-08-07T12:18:08.120Z,82.07
2022-08-07T12:19:23.017Z,83.38
2022-08-07T12:20:32.347Z,80.55
2022-08-07T12:22:36.393Z,84.94
2022-08-07T12:25:07.531Z,81.14
2022-08-07T12:26:30.002Z,81.40
2022-08-07T12:28:08.721Z,80.54
2022-08-07T12:28:53.183Z,81.50
2022-08-07T12:29:58.312Z,80.35
2022-08-07T12:31:09.408Z,84.17
2022-08-07T12:32:31.729Z,82.94
2022-08-07T12:34:00.611Z,83.60
2022-08-07T12:34:42.503Z,86.57
2022-08-07T12:35:58.185Z,85.56
2022-08-07T12:36:57.540Z,88.19
2022-08-07T12:38:11.531Z,88.35
2022-08-07T12:39:09.270Z,86.94
2022-08-07T12:40:44.946Z,88.09
2022-08-07T12:41:22.512Z,87.61
2022-08-07T12:42:32.164Z,87.48
2022-08-07T12:44:03.586Z,89.23
2022-08-07T12:44:44.976Z,87.43
2022-08-07T12:46:26.369Z,86.19
2022-08-07T12:47:49.292Z,87.41
2022-08-07T12:49:10.233Z,87.54
2022-08-07T12:50:34.490Z,89.45
2022-08-07T12:51:46.408Z,89.46
2022-08-07T12:52:52.226Z,87.69
2022-08-07T12:54:37.095Z,87.32
2022-08-07T12:55:40.642Z,88.37
2022-08-07T12:56:39.792Z,87.22
2022-08-07T12:58:00.437Z,89.73
2022-08-07T12:58:53.209Z,89.70
2022-08-07T13:00:01.983Z,89.23
2022-08-07T13:02:49.367Z,90.62
2022-08-07T13:04:09.836Z,89.14
2022-08-07T13:06:02.578Z,88.39
2022-08-07T13:07:21.299Z,91.61
2022-08-07T13:08:40.664Z,90.14
2022-08-07T13:10:21.396Z,90.98
2022-08-07T13:11:24.558Z,90.80
2022-08-07T13:12:50.410Z,90.58
2022-08-07T13:14:15.747Z,88.34
2022-08-07T13:15:48.631Z,89.71
2022-08-07T13:17:12.525Z,89.51
2022-08-07T13:18:53.830Z,89.91
2022-08-07T13:20:18.562Z,89.36
2022-08-07T13:21:50.194Z,89.21
2022-08-07T13:22:42.908Z,90.22
2022-08-07T13:24:00.608Z,89.74
2022-08-07T13:25:15.140Z,89.24
2022-08-07T13:26:28.797Z,90.42
2022-08-07T13:28:10.904Z,91.56
2022-08-07T13:28:45.149Z,91.75
2022-08-07T13:30:03.613Z,94.28
2022-08-07T13:31:16.080Z,94.81
2022-08-07T13:32:31.303Z,94.96
2022-08-07T13:34:31.337Z,96.50
2022-08-07T13:34:59.166Z,97.41
2022-08-07T13:36:17.471Z,97.80
2022-08-07T13:37:43.096Z,98.66
2022-08-07T13:39:12.662Z,99.94
2022-08-07T13:40:35.301Z,100.00
2022-08-07T13:41:32.181Z,100.00
2022-08-07T13:42:39.695Z,100.00
2022-08-07T13:43:44.534Z,100.00
2022-08-07T13:45:11.512Z,100.00
2022-08-07T13:46:11.225Z,100.00
2022-08-07T13:47:09.424Z,100.00
2022-08-07T13:48:27.885Z,100.00
2022-08-07T13:50:33.522Z,100.00
2022-08-07T13:50:33.872Z,100.00
2022-08-07T13:52:05.237Z,100.00
2022-08-07T13:52:41.114Z,100.00
2022-08-07T13:53:59.364Z,100.00
2022-08-07T13:54:59.140Z,100.00
2022-08-07T13:56:05.252Z,100.00
2022-08-07T13:57:10.503Z,100.00
2022-08-07T13:58:26.033Z,100.00
2022-08-07T13:59:27.076Z,100.00
2022-08-07T14:00:50.472Z,100.00
2022-08-07T14:02:03.635Z,100.00
2022-08-07T14:02:59.631Z,100.00
2022-08-07T14:04:14.363Z,100.00
2022-08-07T14:05:20.620Z,100.00
2022-08-07T14:06:27.858Z,100.00
2022-08-07T14:07:59.435Z,100.00
2022-08-07T14:08:53.468Z,100.00
2022-08-07T14:10:12.025Z,100.00
2022-08-07T14:11:15.113Z,100.00
2022-08-07T14:13:34.658Z,100.00
2022-08-07T14:14:46.903Z,100.00
2022-08-07T14:16:02.341Z,100.00
2022-08-07T14:17:32.317Z,100.00
2022-08-07T14:18:29.351Z,100.00
2022-08-07T14:20:43.150Z,100.00
2022-08-07T14:22:01.890Z,100.00
2022-08-07T14:22:41.005Z,100.00
2022-08-07T14:23:00.611Z,100.00
2022-08-07T14:24:10.355Z,100.00
2022-08-07T14:25:16.397Z,100.00
2022-08-07T14:26:29.766Z,100.00
2022-08-07T14:28:11.844Z,100.00
2022-08-07T14:28:57.274Z,100.00
2022-08-07T14:30:06.590Z,100.00
2022-08-07T14:30:56.147Z,100.00
2022-08-07T14:32:03.087Z,100.00
2022-08-07T14:33:07.668Z,100.00
2022-08-07T14:34:12.150Z,100.00
2022-08-07T14:35:43.246Z,100.00
2022-08-07T14:36:31.633Z,100.00
2022-08-07T14:37:39.203Z,100.00
2022-08-07T14:38:50.274Z,100.00
2022-08-07T14:40:15.935Z,100.00
2022-08-07T14:40:59.442Z,100.00
2022-08-07T14:42:20.617Z,100.00
2022-08-07T14:43:57.320Z,100.00
2022-08-07T14:44:19.856Z,100.00
2022-08-07T14:45:48.692Z,100.00
2022-08-07T14:47:58.880Z,100.00
2022-08-07T14:49:17.536Z,100.00
2022-08-07T14:50:11.338Z,100.00
2022-08-07T14:51:17.593Z,100.00
2022-08-07T14:52:27.746Z,100.00
2022-08-07T14:54:03.626Z,100.00
2022-08-07T14:54:42.222Z,100.00
2022-08-07T14:55:56.508Z,100.00
2022-08-07T14:56:49.827Z,100.00
2022-08-07T14:57:59.145Z,100.00
2022-08-07T14:59:03.213Z,100.00
2022-08-07T15:00:09.263Z,100.00
2022-08-07T15:01:22.518Z,100.00
2022-08-07T15:02:31.739Z,100.00
2022-08-07T15:03:52.368Z,100.00
2022-08-07T15:04:34.015Z,100.00
2022-08-07T15:05:54.202Z,100.00
2022-08-07T15:07:52.202Z,100.00
2022-08-07T15:08:57.140Z,100.00
2022-08-07T15:10:04.714Z,100.00
2022-08-07T15:11:07.762Z,100.00